createdAt,value
2018-07-14T00:00:31.412Z,75.45
2018-07-14T00:02:59.770Z,75.32
2018-07-14T00:05:28.067Z,76.01
2018-07-14T00:07:56.354Z,75.37
2018-07-14T00:10:24.632Z,76.13
2018-07-14T00:12:53.125Z,76.47
2018-07-14T00:15:21.474Z,77.05
2018-07-14T00:17:49.762Z,76.72
2018-07-14T00:20:18.054Z,76.23
2018-07-14T00:22:46.323Z,77.37
2018-07-14T00:25:14.596Z,77.78
2018-07-14T00:27:42.892Z,78.36
2018-07-14T00:30:11.233Z,77.49
2018-07-14T00:32:39.518Z,77.96
2018-07-14T00:35:07.809Z,78.26
2018-07-14T00:37:36.086Z,77.37
2018-07-14T00:40:04.357Z,78.32
2018-07-14T00:42:32.636Z,78.52
2018-07-14T00:45:00.910Z,78.57
2018-07-14T00:47:29.181Z,78.78
2018-07-14T00:49:57.437Z,78.07
2018-07-14T00:52:25.698Z,78.31
2018-07-14T00:54:54.016Z,78.23
2018-07-14T00:57:22.295Z,79.00
2018-07-14T00:59:50.577Z,79.12
2018-07-14T01:02:18.880Z,78.48
2018-07-14T01:04:47.156Z,79.51
2018-07-14T01:07:15.423Z,78.78
2018-07-14T01:09:43.710Z,78.98
2018-07-14T01:12:11.959Z,79.75
2018-07-14T01:14:40.256Z,79.19
2018-07-14T01:17:08.557Z,79.05
2018-07-14T01:19:37.590Z,78.83
2018-07-14T01:22:06.052Z,78.76
2018-07-14T01:24:34.317Z,79.69
2018-07-14T01:27:02.629Z,79.09
2018-07-14T01:29:30.932Z,78.64
2018-07-14T01:31:59.216Z,79.31
2018-07-14T01:34:27.470Z,79.84
2018-07-14T01:36:55.738Z,79.56
2018-07-14T01:39:24.020Z,77.84
2018-07-14T01:41:52.351Z,78.66
2018-07-14T01:44:20.643Z,74.47
2018-07-14T01:46:48.949Z,77.54
2018-07-14T01:49:17.311Z,77.21
2018-07-14T01:51:46.567Z,77.65
2018-07-14T01:54:14.815Z,77.00
2018-07-14T01:56:43.099Z,76.86
2018-07-14T01:59:11.360Z,74.66
2018-07-14T02:01:40.331Z,73.18
2018-07-14T02:04:08.774Z,71.69
2018-07-14T02:06:37.034Z,72.42
2018-07-14T02:09:05.797Z,73.37
2018-07-14T02:11:34.104Z,73.48
2018-07-14T02:14:02.390Z,71.84
2018-07-14T02:16:30.640Z,73.59
2018-07-14T02:18:58.917Z,73.07
2018-07-14T02:21:27.187Z,71.89
2018-07-14T02:23:55.440Z,71.62
2018-07-14T02:26:23.711Z,70.41
2018-07-14T02:28:51.977Z,69.78
2018-07-14T02:31:20.265Z,69.05
2018-07-14T02:33:48.536Z,69.56
2018-07-14T02:36:16.812Z,69.86
2018-07-14T02:38:45.137Z,70.09
2018-07-14T02:41:13.375Z,69.01
2018-07-14T02:43:41.652Z,69.88
2018-07-14T02:46:09.990Z,69.71
2018-07-14T02:48:38.267Z,70.26
2018-07-14T02:51:06.619Z,68.68
2018-07-14T02:53:34.893Z,69.47
2018-07-14T02:56:03.156Z,69.52
2018-07-14T02:58:31.828Z,69.68
2018-07-14T03:01:00.148Z,69.38
2018-07-14T03:03:29.005Z,69.92
2018-07-14T03:05:57.261Z,69.36
2018-07-14T03:08:25.552Z,70.12
2018-07-14T03:10:53.879Z,69.85
2018-07-14T03:13:22.142Z,69.00
2018-07-14T03:15:50.414Z,68.97
2018-07-14T03:18:18.741Z,69.59
2018-07-14T03:20:47.410Z,69.33
2018-07-14T03:23:15.679Z,68.81
2018-07-14T03:25:43.953Z,68.44
2018-07-14T03:28:12.214Z,68.23
2018-07-14T03:30:40.457Z,67.82
2018-07-14T03:33:08.814Z,67.96
2018-07-14T03:35:37.069Z,68.19
2018-07-14T03:38:05.445Z,68.85
2018-07-14T03:40:33.721Z,68.25
2018-07-14T03:43:01.978Z,69.40
2018-07-14T03:45:30.228Z,70.05
2018-07-14T03:47:58.494Z,70.81
2018-07-14T03:50:26.780Z,71.07
2018-07-14T03:52:55.153Z,71.73
2018-07-14T03:55:23.407Z,71.26
2018-07-14T03:57:52.388Z,71.28
2018-07-14T04:00:20.637Z,71.82
2018-07-14T04:02:48.924Z,71.61
2018-07-14T04:05:17.226Z,72.35
2018-07-14T04:07:45.532Z,73.31
2018-07-14T04:10:13.869Z,72.66
2018-07-14T04:12:42.160Z,73.85
2018-07-14T04:15:10.481Z,73.32
2018-07-14T04:17:38.790Z,74.86
2018-07-14T04:20:07.190Z,74.09
2018-07-14T04:22:35.466Z,74.27
2018-07-14T04:25:03.786Z,73.36
2018-07-14T04:27:32.184Z,72.86
2018-07-14T04:30:00.473Z,73.14
2018-07-14T04:32:28.741Z,72.15
2018-07-14T04:34:57.050Z,71.74
2018-07-14T04:37:25.330Z,72.85
2018-07-14T04:39:53.651Z,72.15
2018-07-14T04:42:22.022Z,70.94
2018-07-14T04:44:50.286Z,70.85
2018-07-14T04:47:18.603Z,70.32
2018-07-14T04:49:46.952Z,71.33
2018-07-14T04:52:15.244Z,70.51
2018-07-14T04:54:43.574Z,70.45
2018-07-14T04:57:11.844Z,69.35
2018-07-14T04:59:40.149Z,69.85
2018-07-14T05:02:08.430Z,70.57
2018-07-14T05:04:36.732Z,69.44
2018-07-14T05:07:05.151Z,70.07
2018-07-14T05:09:33.478Z,70.58
2018-07-14T05:12:01.978Z,69.92
2018-07-14T05:14:30.322Z,68.74
2018-07-14T05:16:59.307Z,68.81
2018-07-14T05:19:27.640Z,68.97
2018-07-14T05:21:55.918Z,69.27
2018-07-14T05:24:24.209Z,69.94
2018-07-14T05:26:52.514Z,70.00
2018-07-14T05:29:20.815Z,68.65
2018-07-14T05:31:49.110Z,68.88
2018-07-14T05:34:17.383Z,68.60
2018-07-14T05:36:45.724Z,68.18
2018-07-14T05:39:14.020Z,68.05
2018-07-14T05:41:42.344Z,69.18
2018-07-14T05:44:10.705Z,67.89
2018-07-14T05:46:38.910Z,67.95
2018-07-14T05:49:07.371Z,67.17
2018-07-14T05:51:35.635Z,66.89
2018-07-14T05:54:04.035Z,66.59
2018-07-14T05:56:32.371Z,67.44
2018-07-14T05:59:00.786Z,66.65
2018-07-14T06:01:29.037Z,65.70
2018-07-14T06:03:57.290Z,65.97
2018-07-14T06:06:25.624Z,66.82
2018-07-14T06:08:53.956Z,66.22
2018-07-14T06:13:50.074Z,65.85
2018-07-14T06:16:18.649Z,64.98
2018-07-14T06:18:46.974Z,65.97
2018-07-14T06:21:15.337Z,65.81
2018-07-14T06:23:43.648Z,63.92
2018-07-14T06:26:11.979Z,62.88
2018-07-14T06:28:40.275Z,62.91
2018-07-14T06:31:08.567Z,61.56
2018-07-14T06:33:36.878Z,61.23
2018-07-14T06:36:06.661Z,61.14
2018-07-14T06:38:35.011Z,61.64
2018-07-14T06:41:04.305Z,62.33
2018-07-14T06:43:32.547Z,60.86
2018-07-14T06:46:01.203Z,60.78
2018-07-14T06:48:29.540Z,59.85
2018-07-14T06:51:04.609Z,60.21
2018-07-14T06:53:32.917Z,59.67
2018-07-14T06:56:01.189Z,59.19
2018-07-14T06:58:29.457Z,58.76
2018-07-14T07:00:57.713Z,59.52
2018-07-14T07:03:26.154Z,59.03
2018-07-14T07:05:54.375Z,58.68
2018-07-14T07:08:22.699Z,58.96
2018-07-14T07:10:51.176Z,57.90
2018-07-14T07:13:29.568Z,58.74
2018-07-14T07:15:57.937Z,58.37
2018-07-14T07:18:26.217Z,58.12
2018-07-14T07:20:54.639Z,57.27
2018-07-14T07:23:22.912Z,56.88
2018-07-14T07:25:51.246Z,57.27
2018-07-14T07:28:19.502Z,56.79
2018-07-14T07:30:47.782Z,56.94
2018-07-14T07:33:16.060Z,55.76
2018-07-14T07:35:44.316Z,55.90
2018-07-14T07:38:12.572Z,55.90
2018-07-14T07:40:41.074Z,56.08
2018-07-14T07:43:09.676Z,56.16
2018-07-14T07:45:37.953Z,56.13
2018-07-14T07:48:06.331Z,56.10
2018-07-14T07:50:34.653Z,56.10
2018-07-14T07:53:02.912Z,55.00
2018-07-14T07:55:31.269Z,55.81
2018-07-14T07:57:59.568Z,56.16
2018-07-14T08:00:27.872Z,54.58
2018-07-14T08:02:56.201Z,54.47
2018-07-14T08:05:24.505Z,54.29
2018-07-14T08:07:53.617Z,52.89
2018-07-14T08:10:33.421Z,53.11
2018-07-14T08:13:02.722Z,51.68
2018-07-14T08:15:31.013Z,52.14
2018-07-14T08:17:59.276Z,50.91
2018-07-14T08:20:28.676Z,50.97
2018-07-14T08:22:57.934Z,51.34
2018-07-14T08:25:30.082Z,50.59
2018-07-14T08:27:58.453Z,50.85
2018-07-14T08:30:27.429Z,51.45
2018-07-14T08:32:55.708Z,51.52
2018-07-14T08:35:24.045Z,50.57
2018-07-14T08:37:52.331Z,50.25
2018-07-14T08:40:24.798Z,50.65
2018-07-14T08:42:54.139Z,49.19
2018-07-14T08:45:22.575Z,48.25
2018-07-14T08:47:50.965Z,47.74
2018-07-14T08:50:19.241Z,49.12
2018-07-14T08:52:47.574Z,48.62
2018-07-14T08:55:15.911Z,48.81
2018-07-14T08:57:45.233Z,47.95
2018-07-14T09:00:13.959Z,48.07
2018-07-14T09:02:42.242Z,47.15
2018-07-14T09:05:11.108Z,46.97
2018-07-14T09:07:39.487Z,46.46
2018-07-14T09:10:07.831Z,44.99
2018-07-14T09:12:36.165Z,45.72
2018-07-14T09:15:05.361Z,45.30
2018-07-14T09:17:33.610Z,45.48
2018-07-14T09:20:01.786Z,45.46
2018-07-14T09:22:29.982Z,43.60
2018-07-14T09:27:39.076Z,43.92
2018-07-14T09:30:07.363Z,43.35
2018-07-14T09:32:35.747Z,44.31
2018-07-14T09:35:04.775Z,44.42
2018-07-14T09:37:33.018Z,44.14
2018-07-14T09:40:15.642Z,44.35
2018-07-14T09:42:44.046Z,44.26
2018-07-14T09:45:12.316Z,42.49
2018-07-14T09:47:40.631Z,43.15
2018-07-14T09:50:08.878Z,42.92
2018-07-14T09:52:37.249Z,42.12
2018-07-14T09:55:05.648Z,41.94
2018-07-14T09:57:33.968Z,41.81
2018-07-14T10:00:04.020Z,41.04
2018-07-14T10:02:32.341Z,40.06
2018-07-14T10:05:00.658Z,39.41
2018-07-14T10:07:30.081Z,39.26
2018-07-14T10:10:09.922Z,38.30
2018-07-14T10:12:38.276Z,38.95
2018-07-14T10:15:06.806Z,38.44
2018-07-14T10:17:35.210Z,38.47
2018-07-14T10:20:03.525Z,38.69
2018-07-14T10:22:31.789Z,39.38
2018-07-14T10:25:00.079Z,39.73
2018-07-14T10:27:28.399Z,38.27
2018-07-14T10:29:56.694Z,37.39
2018-07-14T10:32:25.648Z,37.45
2018-07-14T10:35:02.643Z,37.73
2018-07-14T10:37:30.920Z,38.34
2018-07-14T10:39:59.264Z,37.77
2018-07-14T10:42:28.105Z,38.21
2018-07-14T10:44:56.578Z,38.17
2018-07-14T10:47:25.493Z,37.81
2018-07-14T10:50:00.503Z,38.16
2018-07-14T10:52:28.775Z,38.28
2018-07-14T10:54:57.053Z,39.05
2018-07-14T10:57:25.374Z,38.46
2018-07-14T10:59:53.686Z,37.62
2018-07-14T11:02:21.977Z,38.56
2018-07-14T11:04:50.270Z,37.60
2018-07-14T11:07:18.564Z,37.90
2018-07-14T11:09:47.229Z,38.36
2018-07-14T11:12:15.640Z,38.28
2018-07-14T11:14:44.502Z,36.83
2018-07-14T11:17:12.813Z,38.07
2018-07-14T11:19:41.118Z,36.74
2018-07-14T11:22:09.442Z,39.90
2018-07-14T11:24:37.707Z,36.18
2018-07-14T11:27:06.047Z,36.12
2018-07-14T11:29:34.370Z,35.60
2018-07-14T11:32:02.659Z,36.00
2018-07-14T11:34:32.179Z,34.92
2018-07-14T11:37:00.446Z,34.64
2018-07-14T11:39:29.555Z,35.63
2018-07-14T11:41:57.922Z,36.78
2018-07-14T11:44:27.695Z,36.74
2018-07-14T11:46:55.973Z,36.85
2018-07-14T11:49:24.295Z,38.31
2018-07-14T11:51:52.572Z,36.62
2018-07-14T11:54:21.143Z,35.39
2018-07-14T11:56:50.436Z,35.79
2018-07-14T11:59:18.692Z,35.56
2018-07-14T12:01:47.636Z,35.78
2018-07-14T12:04:16.422Z,35.02
2018-07-14T12:06:44.877Z,34.92
2018-07-14T12:09:16.704Z,35.01
2018-07-14T12:11:45.021Z,35.08
2018-07-14T12:14:15.052Z,34.50
2018-07-14T12:16:43.324Z,35.59
2018-07-14T12:19:11.578Z,33.89
2018-07-14T12:21:39.833Z,34.56
2018-07-14T12:24:10.847Z,34.94
2018-07-14T12:26:40.765Z,33.25
2018-07-14T12:29:08.947Z,34.71
2018-07-14T12:31:37.210Z,34.50
2018-07-14T12:34:05.773Z,33.65
2018-07-14T12:36:34.029Z,33.96
2018-07-14T12:39:02.364Z,33.82
2018-07-14T12:41:30.761Z,34.17
2018-07-14T12:43:59.035Z,33.94
2018-07-14T12:46:28.170Z,33.17
2018-07-14T12:48:56.557Z,34.26
2018-07-14T12:51:24.929Z,33.64
2018-07-14T12:53:53.234Z,33.71
2018-07-14T12:56:21.550Z,34.11
2018-07-14T12:58:50.410Z,34.06
2018-07-14T13:01:18.744Z,33.74
2018-07-14T13:03:47.095Z,33.50
2018-07-14T13:06:15.520Z,33.42
2018-07-14T13:08:43.797Z,33.22
2018-07-14T13:11:12.173Z,33.64
2018-07-14T13:13:40.922Z,35.41
2018-07-14T13:16:09.203Z,33.82
2018-07-14T13:18:37.496Z,32.98
2018-07-14T13:21:05.795Z,33.79
2018-07-14T13:23:34.090Z,33.25
2018-07-14T13:26:02.360Z,32.47
2018-07-14T13:28:30.729Z,31.50
2018-07-14T13:30:58.984Z,32.38
2018-07-14T13:33:27.322Z,33.63
2018-07-14T13:35:56.654Z,32.15
2018-07-14T13:38:26.287Z,31.68
2018-07-14T13:40:54.639Z,32.83
2018-07-14T13:43:23.716Z,32.70
2018-07-14T13:45:52.006Z,32.73
2018-07-14T13:48:20.283Z,34.12
2018-07-14T13:50:48.595Z,35.38
2018-07-14T13:53:16.919Z,32.27
2018-07-14T13:55:45.163Z,32.73
2018-07-14T13:58:13.448Z,32.18
2018-07-14T14:00:41.747Z,32.79
2018-07-14T14:03:10.018Z,32.24
2018-07-14T14:05:38.269Z,32.92
2018-07-14T14:08:06.574Z,32.29
2018-07-14T14:10:34.867Z,31.90
2018-07-14T14:13:03.182Z,32.96
2018-07-14T14:15:32.321Z,32.36
2018-07-14T14:18:00.602Z,33.20
2018-07-14T14:20:28.893Z,32.92
2018-07-14T14:22:57.210Z,33.38
2018-07-14T14:25:25.504Z,34.69
2018-07-14T14:27:53.743Z,32.57
2018-07-14T14:30:22.012Z,32.92
2018-07-14T14:32:50.314Z,31.08
2018-07-14T14:35:18.557Z,31.63
2018-07-14T14:37:47.504Z,32.31
2018-07-14T14:40:15.768Z,31.76
2018-07-14T14:42:44.470Z,31.09
2018-07-14T14:45:12.769Z,30.72
2018-07-14T14:47:41.056Z,31.27
2018-07-14T14:50:09.313Z,33.06
2018-07-14T14:52:37.600Z,31.84
2018-07-14T14:55:05.965Z,30.85
2018-07-14T14:57:40.245Z,31.63
2018-07-14T15:00:10.629Z,31.03
2018-07-14T15:02:41.000Z,31.51
2018-07-14T15:05:12.564Z,30.63
2018-07-14T15:07:41.211Z,31.22
2018-07-14T15:10:09.753Z,30.52
2018-07-14T15:12:38.110Z,30.67
2018-07-14T15:15:41.277Z,31.39
2018-07-14T15:18:12.510Z,30.19
2018-07-14T15:20:40.902Z,31.19
2018-07-14T15:23:10.017Z,30.09
2018-07-14T15:25:39.339Z,30.71
2018-07-14T15:28:07.614Z,31.11
2018-07-14T15:30:36.594Z,31.30
2018-07-14T15:33:05.136Z,31.88
2018-07-14T15:35:35.354Z,31.21
2018-07-14T15:38:03.675Z,31.64
2018-07-14T15:40:33.280Z,31.00
2018-07-14T15:43:01.625Z,31.31
2018-07-14T15:45:29.886Z,31.33
2018-07-14T15:47:58.201Z,31.23
2018-07-14T15:50:27.077Z,31.22
2018-07-14T15:52:55.346Z,31.50
2018-07-14T15:55:24.759Z,30.43
2018-07-14T15:57:56.553Z,31.16
2018-07-14T16:00:24.842Z,31.22
2018-07-14T16:02:55.065Z,30.58
2018-07-14T16:05:23.386Z,33.42
2018-07-14T16:07:53.524Z,31.85
2018-07-14T16:10:21.814Z,31.53
2018-07-14T16:12:50.117Z,32.22
2018-07-14T16:15:18.428Z,32.04
2018-07-14T16:17:46.701Z,31.63
2018-07-14T16:20:14.998Z,31.82
2018-07-14T16:22:43.385Z,31.99
2018-07-14T16:25:11.693Z,32.51
2018-07-14T16:27:39.982Z,29.74
2018-07-14T16:30:08.320Z,30.63
2018-07-14T16:32:36.602Z,31.73
2018-07-14T16:35:04.879Z,32.79
2018-07-14T16:37:33.159Z,31.95
2018-07-14T16:40:01.441Z,30.84
2018-07-14T16:42:29.703Z,29.43
2018-07-14T16:44:58.742Z,30.56
2018-07-14T16:47:27.017Z,30.55
2018-07-14T16:49:56.146Z,31.37
2018-07-14T16:52:24.534Z,30.98
2018-07-14T16:54:52.808Z,30.12
2018-07-14T16:57:21.093Z,29.81
2018-07-14T16:59:49.410Z,28.68
2018-07-14T17:02:17.674Z,29.65
2018-07-14T17:04:46.196Z,29.44
2018-07-14T17:07:15.225Z,28.28
2018-07-14T17:09:43.513Z,27.49
2018-07-14T17:12:11.829Z,26.96
2018-07-14T17:16:23.647Z,27.95
2018-07-14T17:18:52.137Z,27.19
2018-07-14T17:21:20.746Z,27.44
2018-07-14T17:23:55.937Z,27.42
2018-07-14T17:26:24.225Z,26.95
2018-07-14T17:28:52.506Z,26.57
2018-07-14T17:31:20.803Z,26.80
2018-07-14T17:33:49.216Z,26.21
2018-07-14T17:36:17.769Z,26.91
2018-07-14T17:38:49.194Z,27.33
2018-07-14T17:41:17.577Z,29.18
2018-07-14T17:43:45.961Z,29.21
2018-07-14T17:46:20.937Z,29.51
2018-07-14T17:48:49.411Z,29.76
2018-07-14T17:51:17.655Z,30.27
2018-07-14T17:53:46.026Z,29.82
2018-07-14T17:56:14.333Z,31.55
2018-07-14T17:58:42.636Z,33.05
2018-07-14T18:01:10.969Z,31.34
2018-07-14T18:03:39.264Z,34.01
2018-07-14T18:06:08.379Z,32.58
2018-07-14T18:08:36.622Z,31.47
2018-07-14T18:11:05.193Z,32.33
2018-07-14T18:13:33.518Z,36.72
2018-07-14T18:16:02.247Z,33.47
2018-07-14T18:18:30.585Z,32.74
2018-07-14T18:21:04.895Z,32.20
2018-07-14T18:23:33.166Z,32.65
2018-07-14T18:26:01.520Z,32.76
2018-07-14T18:28:30.536Z,33.62
2018-07-14T18:30:58.821Z,33.05
2018-07-14T18:33:27.112Z,34.24
2018-07-14T18:35:55.379Z,33.81
2018-07-14T18:38:23.706Z,33.98
2018-07-14T18:40:52.006Z,35.14
2018-07-14T18:43:20.262Z,34.02
2018-07-14T18:45:48.530Z,34.40
2018-07-14T18:48:16.781Z,34.54
2018-07-14T18:50:45.069Z,41.01
2018-07-14T18:53:13.351Z,37.66
2018-07-14T18:55:41.634Z,35.64
2018-07-14T18:58:09.962Z,38.18
2018-07-14T19:00:38.281Z,37.37
2018-07-14T19:03:06.576Z,36.86
2018-07-14T19:05:34.865Z,37.14
2018-07-14T19:08:03.165Z,37.24
2018-07-14T19:10:31.633Z,37.68
2018-07-14T19:13:00.022Z,37.58
2018-07-14T19:15:28.317Z,36.93
2018-07-14T19:17:56.615Z,38.23
2018-07-14T19:20:24.917Z,37.80
2018-07-14T19:22:53.219Z,37.26
2018-07-14T19:25:21.514Z,37.27
2018-07-14T19:27:49.812Z,38.53
2018-07-14T19:30:18.117Z,38.29
2018-07-14T19:32:46.340Z,37.85
2018-07-14T19:35:14.631Z,38.27
2018-07-14T19:37:42.901Z,39.69
2018-07-14T19:40:11.177Z,39.56
2018-07-14T19:42:39.422Z,39.73
2018-07-14T19:45:07.744Z,42.39
2018-07-14T19:47:36.073Z,40.86
2018-07-14T19:50:04.358Z,41.17
2018-07-14T19:52:32.806Z,40.45
2018-07-14T19:55:01.087Z,39.99
2018-07-14T19:57:29.325Z,41.00
2018-07-14T19:59:57.576Z,40.54
2018-07-14T20:02:25.842Z,40.18
2018-07-14T20:04:54.226Z,39.98
2018-07-14T20:07:22.622Z,41.09
2018-07-14T20:09:50.998Z,40.79
2018-07-14T20:12:19.239Z,41.15
2018-07-14T20:14:51.710Z,42.46
2018-07-14T20:17:20.294Z,42.77
2018-07-14T20:19:48.583Z,43.51
2018-07-14T20:22:16.976Z,43.95
2018-07-14T20:24:45.309Z,44.33
2018-07-14T20:27:13.544Z,44.80
2018-07-14T20:29:42.085Z,45.35
2018-07-14T20:32:10.320Z,46.22
2018-07-14T20:34:38.558Z,46.10
2018-07-14T20:37:06.957Z,47.69
2018-07-14T20:39:35.211Z,47.55
2018-07-14T20:42:03.487Z,47.48
2018-07-14T20:44:31.832Z,48.40
2018-07-14T20:47:00.079Z,48.31
2018-07-14T20:49:28.306Z,49.55
2018-07-14T20:51:56.631Z,49.58
2018-07-14T20:54:24.912Z,50.00
2018-07-14T20:56:53.187Z,50.52
2018-07-14T20:59:21.444Z,50.90
2018-07-14T21:01:49.694Z,50.78
2018-07-14T21:04:17.967Z,51.06
2018-07-14T21:06:46.231Z,51.46
2018-07-14T21:09:14.468Z,51.51
2018-07-14T21:11:42.705Z,51.89
2018-07-14T21:14:10.983Z,51.86
2018-07-14T21:16:39.229Z,52.18
2018-07-14T21:19:07.608Z,52.17
2018-07-14T21:21:35.886Z,52.45
2018-07-14T21:24:04.074Z,52.46
2018-07-14T21:26:32.428Z,52.28
2018-07-14T21:29:00.654Z,52.72
2018-07-14T21:31:28.910Z,52.55
2018-07-14T21:33:57.148Z,52.56
2018-07-14T21:36:25.972Z,52.71
2018-07-14T21:38:54.913Z,52.83
2018-07-14T21:41:23.665Z,53.18
2018-07-14T21:43:52.065Z,52.98
2018-07-14T21:46:20.230Z,53.27
2018-07-14T21:48:48.555Z,53.24
2018-07-14T21:51:17.289Z,53.23
2018-07-14T21:53:45.479Z,53.25
2018-07-14T21:56:13.652Z,53.07
2018-07-14T21:58:41.914Z,53.11
2018-07-14T22:01:15.518Z,52.88
2018-07-14T22:03:43.801Z,52.96
2018-07-14T22:06:12.165Z,52.87
2018-07-14T22:08:40.422Z,53.26
2018-07-14T22:11:08.749Z,53.80
2018-07-14T22:13:37.060Z,53.32
2018-07-14T22:16:05.330Z,53.62
2018-07-14T22:18:33.574Z,53.66
2018-07-14T22:21:01.752Z,54.08
2018-07-14T22:23:29.932Z,53.79
2018-07-14T22:25:58.086Z,54.24
2018-07-14T22:28:26.200Z,54.32
2018-07-14T22:30:54.279Z,54.18
2018-07-14T22:33:22.537Z,54.58
2018-07-14T22:35:50.609Z,54.69
2018-07-14T22:38:18.732Z,54.81
2018-07-14T22:40:46.803Z,54.86
2018-07-14T22:43:14.880Z,55.06
2018-07-14T22:45:42.951Z,55.04
2018-07-14T22:48:11.020Z,55.19
2018-07-14T22:50:39.911Z,55.25
2018-07-14T22:53:08.005Z,55.45
2018-07-14T22:55:36.116Z,55.48
2018-07-14T22:58:04.211Z,55.64
2018-07-14T23:00:32.303Z,55.67
2018-07-14T23:03:00.385Z,55.94
2018-07-14T23:05:28.456Z,56.22
2018-07-14T23:07:56.536Z,56.49
2018-07-14T23:10:24.655Z,56.54
2018-07-14T23:12:52.845Z,56.63
2018-07-14T23:15:21.051Z,56.72
2018-07-14T23:17:49.232Z,56.85
2018-07-14T23:20:17.449Z,57.07
2018-07-14T23:22:45.618Z,56.96
2018-07-14T23:25:13.807Z,57.27
2018-07-14T23:27:42.040Z,57.67
2018-07-14T23:30:10.352Z,57.46
2018-07-14T23:32:38.548Z,57.62
2018-07-14T23:35:06.798Z,57.47
2018-07-14T23:37:35.108Z,57.61
2018-07-14T23:40:03.357Z,57.40
2018-07-14T23:42:31.545Z,57.67
2018-07-14T23:44:59.732Z,57.85
2018-07-14T23:47:27.975Z,57.85
2018-07-14T23:49:56.162Z,57.93
2018-07-14T23:52:24.339Z,57.96
2018-07-14T23:54:52.528Z,58.12
2018-07-14T23:57:20.740Z,58.37
2018-07-14T23:59:48.917Z,58.43
